sensor_id;sensor_type;location;lat;lon;timestamp;pressure;altitude;pressure_sealevel;temperature;humidity
56928;BME280;60850;52.502;13.426;2024-02-15T00:01:25;101354.84;;;9.12;100.00
56928;BME280;60850;52.502;13.426;2024-02-15T00:03:54;101358.47;;;9.06;100.00
56928;BME280;60850;52.502;13.426;2024-02-15T00:06:21;101360.28;;;9.01;100.00
56928;BME280;60850;52.502;13.426;2024-02-15T00:08:48;101358.44;;;9.07;100.00
56928;BME280;60850;52.502;13.426;2024-02-15T00:11:15;101362.06;;;9.00;100.00
56928;BME280;60850;52.502;13.426;2024-02-15T00:13:42;101365.53;;;9.10;100.00
56928;BME280;60850;52.502;13.426;2024-02-15T00:16:13;101357.56;;;9.05;100.00
56928;BME280;60850;52.502;13.426;2024-02-15T00:18:40;101356.56;;;9.19;100.00
56928;BME280;60850;52.502;13.426;2024-02-15T00:21:08;101355.69;;;9.17;100.00
56928;BME280;60850;52.502;13.426;2024-02-15T00:23:36;101346.81;;;9.15;100.00
56928;BME280;60850;52.502;13.426;2024-02-15T00:26:04;101352.06;;;9.22;100.00
56928;BME280;60850;52.502;13.426;2024-02-15T00:28:31;101355.63;;;9.21;100.00
56928;BME280;60850;52.502;13.426;2024-02-15T00:30:59;101357.47;;;9.15;100.00
56928;BME280;60850;52.502;13.426;2024-02-15T00:33:26;101353.91;;;9.17;100.00
56928;BME280;60850;52.502;13.426;2024-02-15T00:35:53;101358.28;;;9.21;100.00
56928;BME280;60850;52.502;13.426;2024-02-15T00:38:21;101361.00;;;9.18;100.00
56928;BME280;60850;52.502;13.426;2024-02-15T00:40:48;101354.78;;;9.18;100.00
56928;BME280;60850;52.502;13.426;2024-02-15T00:43:15;101360.19;;;9.10;100.00
56928;BME280;60850;52.502;13.426;2024-02-15T00:45:42;101359.34;;;9.06;100.00
56928;BME280;60850;52.502;13.426;2024-02-15T00:48:09;101363.66;;;9.15;100.00
56928;BME280;60850;52.502;13.426;2024-02-15T00:50:36;101365.53;;;9.10;100.00
56928;BME280;60850;52.502;13.426;2024-02-15T00:53:03;101363.66;;;9.15;100.00
56928;BME280;60850;52.502;13.426;2024-02-15T00:55:32;101365.38;;;9.22;100.00
56928;BME280;60850;52.502;13.426;2024-02-15T00:57:59;101360.88;;;9.30;100.00
56928;BME280;60850;52.502;13.426;2024-02-15T01:00:26;101359.16;;;9.22;100.00
56928;BME280;60850;52.502;13.426;2024-02-15T01:02:54;101362.72;;;9.21;100.00
56928;BME280;60850;52.502;13.426;2024-02-15T01:05:21;101360.91;;;9.23;100.00
56928;BME280;60850;52.502;13.426;2024-02-15T01:07:49;101354.66;;;9.28;100.00
56928;BME280;60850;52.502;13.426;2024-02-15T01:10:17;101354.78;;;9.19;100.00
56928;BME280;60850;52.502;13.426;2024-02-15T01:12:45;101351.16;;;9.26;100.00
56928;BME280;60850;52.502;13.426;2024-02-15T01:15:12;101354.88;;;9.07;100.00
56928;BME280;60850;52.502;13.426;2024-02-15T01:17:41;101358.22;;;9.27;100.00
56928;BME280;60850;52.502;13.426;2024-02-15T01:20:09;101352.03;;;9.25;100.00
56928;BME280;60850;52.502;13.426;2024-02-15T01:22:36;101352.03;;;9.25;100.00
56928;BME280;60850;52.502;13.426;2024-02-15T01:25:04;101353.81;;;9.25;100.00
56928;BME280;60850;52.502;13.426;2024-02-15T01:27:32;101344.19;;;9.16;100.00
56928;BME280;60850;52.502;13.426;2024-02-15T01:30:01;101344.19;;;9.13;100.00
56928;BME280;60850;52.502;13.426;2024-02-15T01:32:29;101351.28;;;9.13;100.00
56928;BME280;60850;52.502;13.426;2024-02-15T01:34:57;101346.88;;;9.08;100.00
56928;BME280;60850;52.502;13.426;2024-02-15T01:37:24;101350.50;;;9.04;100.00
56928;BME280;60850;52.502;13.426;2024-02-15T01:39:51;101353.97;;;9.11;100.00
56928;BME280;60850;52.502;13.426;2024-02-15T01:42:18;101352.06;;;9.22;100.00
56928;BME280;60850;52.502;13.426;2024-02-15T01:44:45;101352.16;;;9.13;100.00
56928;BME280;60850;52.502;13.426;2024-02-15T01:47:16;101347.75;;;9.12;100.00
56928;BME280;60850;52.502;13.426;2024-02-15T01:49:45;101349.53;;;9.12;100.00
56928;BME280;60850;52.502;13.426;2024-02-15T01:52:15;101348.66;;;9.11;100.00
56928;BME280;60850;52.502;13.426;2024-02-15T01:54:44;101354.81;;;9.16;100.00
56928;BME280;60850;52.502;13.426;2024-02-15T01:57:11;101348.66;;;9.11;100.00
56928;BME280;60850;52.502;13.426;2024-02-15T01:59:38;101343.31;;;9.13;100.00
56928;BME280;60850;52.502;13.426;2024-02-15T02:02:08;101339.78;;;9.09;100.00
56928;BME280;60850;52.502;13.426;2024-02-15T02:04:40;101336.25;;;9.12;100.00
56928;BME280;60850;52.502;13.426;2024-02-15T02:07:07;101344.31;;;9.04;100.00
56928;BME280;60850;52.502;13.426;2024-02-15T02:09:35;101337.22;;;9.03;100.00
56928;BME280;60850;52.502;13.426;2024-02-15T02:12:02;101336.25;;;9.12;100.00
56928;BME280;60850;52.502;13.426;2024-02-15T02:14:30;101341.56;;;9.12;100.00
56928;BME280;60850;52.502;13.426;2024-02-15T02:17:10;101337.13;;;9.11;100.00
56928;BME280;60850;52.502;13.426;2024-02-15T02:19:37;101335.41;;;9.05;100.00
56928;BME280;60850;52.502;13.426;2024-02-15T02:22:07;101335.31;;;9.14;100.00
56928;BME280;60850;52.502;13.426;2024-02-15T02:24:44;101337.00;;;9.24;100.00
56928;BME280;60850;52.502;13.426;2024-02-15T02:27:14;101339.69;;;9.20;100.00
56928;BME280;60850;52.502;13.426;2024-02-15T02:29:43;101342.34;;;9.20;100.00
56928;BME280;60850;52.502;13.426;2024-02-15T02:32:11;101337.00;;;9.21;100.00
56928;BME280;60850;52.502;13.426;2024-02-15T02:34:39;101336.88;;;9.33;100.00
56928;BME280;60850;52.502;13.426;2024-02-15T02:37:07;101341.34;;;9.30;100.00
56928;BME280;60850;52.502;13.426;2024-02-15T02:39:34;101334.22;;;9.32;100.00
56928;BME280;60850;52.502;13.426;2024-02-15T02:42:01;101327.09;;;9.34;100.00
56928;BME280;60850;52.502;13.426;2024-02-15T02:44:30;101330.59;;;9.39;100.00
56928;BME280;60850;52.502;13.426;2024-02-15T02:46:57;101337.00;;;9.24;100.00
56928;BME280;60850;52.502;13.426;2024-02-15T02:49:24;101337.88;;;9.23;100.00
56928;BME280;60850;52.502;13.426;2024-02-15T02:51:51;101342.19;;;9.33;100.00
56928;BME280;60850;52.502;13.426;2024-02-15T02:54:18;101335.03;;;9.39;100.00
56928;BME280;60850;52.502;13.426;2024-02-15T02:56:47;101341.41;;;9.25;100.00
56928;BME280;60850;52.502;13.426;2024-02-15T02:59:14;101342.25;;;9.30;100.00
56928;BME280;60850;52.502;13.426;2024-02-15T03:01:43;101331.50;;;9.36;100.00
56928;BME280;60850;52.502;13.426;2024-02-15T03:04:10;101325.34;;;9.33;100.00
56928;BME280;60850;52.502;13.426;2024-02-15T03:06:42;101334.31;;;9.24;100.00
56928;BME280;60850;52.502;13.426;2024-02-15T03:09:11;101338.75;;;9.22;100.00
56928;BME280;60850;52.502;13.426;2024-02-15T03:11:40;101342.38;;;9.18;100.00
56928;BME280;60850;52.502;13.426;2024-02-15T03:14:07;101341.44;;;9.24;100.00
56928;BME280;60850;52.502;13.426;2024-02-15T03:16:34;101336.13;;;9.21;100.00
56928;BME280;60850;52.502;13.426;2024-02-15T03:19:02;101330.69;;;9.30;100.00
56928;BME280;60850;52.502;13.426;2024-02-15T03:21:30;101330.72;;;9.28;100.00
56928;BME280;60850;52.502;13.426;2024-02-15T03:23:57;101335.19;;;9.26;100.00
56928;BME280;60850;52.502;13.426;2024-02-15T03:26:29;101331.56;;;9.32;100.00
56928;BME280;60850;52.502;13.426;2024-02-15T03:29:04;101329.88;;;9.25;100.00
56928;BME280;60850;52.502;13.426;2024-02-15T03:31:31;101333.44;;;9.25;100.00
56928;BME280;60850;52.502;13.426;2024-02-15T03:33:59;101340.50;;;9.26;100.00
56928;BME280;60850;52.502;13.426;2024-02-15T03:36:27;101333.34;;;9.31;100.00
56928;BME280;60850;52.502;13.426;2024-02-15T03:38:55;101332.41;;;9.35;100.00
56928;BME280;60850;52.502;13.426;2024-02-15T03:41:22;101340.44;;;9.29;100.00
56928;BME280;60850;52.502;13.426;2024-02-15T03:43:50;101335.09;;;9.34;100.00
56928;BME280;60850;52.502;13.426;2024-02-15T03:46:16;101341.31;;;9.33;100.00
56928;BME280;60850;52.502;13.426;2024-02-15T03:48:44;101343.13;;;9.31;100.00
56928;BME280;60850;52.502;13.426;2024-02-15T03:51:11;101338.59;;;9.36;100.00
56928;BME280;60850;52.502;13.426;2024-02-15T03:53:44;101340.56;;;9.23;100.00
56928;BME280;60850;52.502;13.426;2024-02-15T03:56:11;101335.13;;;9.29;100.00
56928;BME280;60850;52.502;13.426;2024-02-15T03:58:38;101346.72;;;9.25;100.00
56928;BME280;60850;52.502;13.426;2024-02-15T04:01:05;101350.28;;;9.24;100.00
56928;BME280;60850;52.502;13.426;2024-02-15T04:03:35;101342.19;;;9.33;100.00
56928;BME280;60850;52.502;13.426;2024-02-15T04:06:03;101340.47;;;9.28;100.00
56928;BME280;60850;52.502;13.426;2024-02-15T04:08:30;101337.72;;;9.39;100.00
56928;BME280;60850;52.502;13.426;2024-02-15T04:10:58;101341.16;;;9.47;100.00
56928;BME280;60850;52.502;13.426;2024-02-15T04:13:25;101336.81;;;9.38;100.00
56928;BME280;60850;52.502;13.426;2024-02-15T04:15:52;101334.09;;;9.43;100.00
56928;BME280;60850;52.502;13.426;2024-02-15T04:18:19;101341.28;;;9.38;100.00
56928;BME280;60850;52.502;13.426;2024-02-15T04:20:47;101343.81;;;9.47;100.00
56928;BME280;60850;52.502;13.426;2024-02-15T04:23:15;101344.91;;;9.30;100.00
56928;BME280;60850;52.502;13.426;2024-02-15T04:25:41;101346.59;;;9.38;100.00
56928;BME280;60850;52.502;13.426;2024-02-15T04:28:11;101342.06;;;9.43;100.00
56928;BME280;60850;52.502;13.426;2024-02-15T04:30:38;101338.59;;;9.38;100.00
56928;BME280;60850;52.502;13.426;2024-02-15T04:33:07;101339.38;;;9.47;100.00
56928;BME280;60850;52.502;13.426;2024-02-15T04:35:34;101343.91;;;9.39;100.00
56928;BME280;60850;52.502;13.426;2024-02-15T04:38:01;101335.94;;;9.39;100.00
56928;BME280;60850;52.502;13.426;2024-02-15T04:40:29;101334.13;;;9.40;100.00
56928;BME280;60850;52.502;13.426;2024-02-15T04:42:56;101335.00;;;9.40;100.00
56928;BME280;60850;52.502;13.426;2024-02-15T04:45:25;101339.41;;;9.43;100.00
56928;BME280;60850;52.502;13.426;2024-02-15T04:47:52;101333.22;;;9.42;100.00
56928;BME280;60850;52.502;13.426;2024-02-15T04:50:22;101338.59;;;9.38;100.00
56928;BME280;60850;52.502;13.426;2024-02-15T04:52:51;101339.41;;;9.43;100.00
56928;BME280;60850;52.502;13.426;2024-02-15T04:55:19;101337.69;;;9.37;100.00
56928;BME280;60850;52.502;13.426;2024-02-15T04:57:46;101337.66;;;9.42;100.00
56928;BME280;60850;52.502;13.426;2024-02-15T05:00:15;101342.03;;;9.47;100.00
56928;BME280;60850;52.502;13.426;2024-02-15T05:02:48;101335.00;;;9.42;100.00
56928;BME280;60850;52.502;13.426;2024-02-15T05:05:15;101342.81;;;9.55;100.00
56928;BME280;60850;52.502;13.426;2024-02-15T05:07:42;101335.78;;;9.50;100.00
56928;BME280;60850;52.502;13.426;2024-02-15T05:10:09;101335.81;;;9.47;100.00
56928;BME280;60850;52.502;13.426;2024-02-15T05:12:40;101337.69;;;9.40;100.00
56928;BME280;60850;52.502;13.426;2024-02-15T05:15:12;101342.06;;;9.43;100.00
56928;BME280;60850;52.502;13.426;2024-02-15T05:17:40;101346.47;;;9.47;100.00
56928;BME280;60850;52.502;13.426;2024-02-15T05:20:09;101357.19;;;9.41;100.00
56928;BME280;60850;52.502;13.426;2024-02-15T05:22:39;101349.13;;;9.47;100.00
56928;BME280;60850;52.502;13.426;2024-02-15T05:25:09;101349.09;;;9.50;100.00
56928;BME280;60850;52.502;13.426;2024-02-15T05:27:38;101345.56;;;9.48;100.00
56928;BME280;60850;52.502;13.426;2024-02-15T05:30:06;101349.09;;;9.50;100.00
56928;BME280;60850;52.502;13.426;2024-02-15T05:32:34;101351.78;;;9.48;100.00
56928;BME280;60850;52.502;13.426;2024-02-15T05:35:10;101346.50;;;9.45;100.00
56928;BME280;60850;52.502;13.426;2024-02-15T05:37:37;101341.16;;;9.45;100.00
56928;BME280;60850;52.502;13.426;2024-02-15T05:40:05;101344.63;;;9.53;100.00
56928;BME280;60850;52.502;13.426;2024-02-15T05:42:33;101344.63;;;9.53;100.00
56928;BME280;60850;52.502;13.426;2024-02-15T05:45:27;101346.31;;;9.60;100.00
56928;BME280;60850;52.502;13.426;2024-02-15T05:47:58;101345.47;;;9.55;100.00
56928;BME280;60850;52.502;13.426;2024-02-15T05:50:27;101351.69;;;9.54;100.00
56928;BME280;60850;52.502;13.426;2024-02-15T05:52:56;101352.53;;;9.59;100.00
56928;BME280;60850;52.502;13.426;2024-02-15T05:55:24;101348.06;;;9.61;100.00
56928;BME280;60850;52.502;13.426;2024-02-15T05:57:52;101356.00;;;9.64;100.00
56928;BME280;60850;52.502;13.426;2024-02-15T06:00:20;101349.84;;;9.61;100.00
56928;BME280;60850;52.502;13.426;2024-02-15T06:02:47;101347.25;;;9.55;100.00
56928;BME280;60850;52.502;13.426;2024-02-15T06:05:15;101346.31;;;9.60;100.00
56928;BME280;60850;52.502;13.426;2024-02-15T06:07:44;101348.84;;;9.68;100.00
56928;BME280;60850;52.502;13.426;2024-02-15T06:10:12;101349.78;;;9.64;100.00
56928;BME280;60850;52.502;13.426;2024-02-15T06:12:41;101349.69;;;9.73;100.00
56928;BME280;60850;52.502;13.426;2024-02-15T06:15:09;101350.75;;;9.60;100.00
56928;BME280;60850;52.502;13.426;2024-02-15T06:17:41;101353.38;;;9.61;100.00
56928;BME280;60850;52.502;13.426;2024-02-15T06:20:11;101350.66;;;9.66;100.00
56928;BME280;60850;52.502;13.426;2024-02-15T06:22:40;101358.59;;;9.69;100.00
56928;BME280;60850;52.502;13.426;2024-02-15T06:25:09;101357.69;;;9.70;100.00
56928;BME280;60850;52.502;13.426;2024-02-15T06:27:37;101361.19;;;9.75;100.00
56928;BME280;60850;52.502;13.426;2024-02-15T06:30:07;101358.59;;;9.69;100.00
56928;BME280;60850;52.502;13.426;2024-02-15T06:32:52;101363.94;;;9.69;100.00
56928;BME280;60850;52.502;13.426;2024-02-15T06:35:37;101371.81;;;9.77;100.00
56928;BME280;60850;52.502;13.426;2024-02-15T06:38:23;101370.09;;;9.71;100.00
56928;BME280;60850;52.502;13.426;2024-02-15T06:41:08;101375.34;;;9.80;100.00
56928;BME280;60850;52.502;13.426;2024-02-15T06:43:35;101370.94;;;9.76;100.00
56928;BME280;60850;52.502;13.426;2024-02-15T06:46:06;101375.41;;;9.74;100.00
56928;BME280;60850;52.502;13.426;2024-02-15T06:48:33;101374.41;;;9.83;100.00
56928;BME280;60850;52.502;13.426;2024-02-15T06:51:00;101373.56;;;9.78;100.00
56928;BME280;60850;52.502;13.426;2024-02-15T06:53:29;101382.28;;;9.90;100.00
56928;BME280;60850;52.502;13.426;2024-02-15T06:55:56;101380.56;;;9.86;100.00
56928;BME280;60850;52.502;13.426;2024-02-15T06:58:25;101385.94;;;9.83;100.00
56928;BME280;60850;52.502;13.426;2024-02-15T07:00:52;101389.44;;;9.88;100.00
56928;BME280;60850;52.502;13.426;2024-02-15T07:03:20;101391.94;;;9.98;100.00
56928;BME280;60850;52.502;13.426;2024-02-15T07:05:48;101394.69;;;9.95;100.00
56928;BME280;60850;52.502;13.426;2024-02-15T07:08:15;101395.56;;;9.95;100.00
56928;BME280;60850;52.502;13.426;2024-02-15T07:10:42;101394.69;;;9.91;100.00
56928;BME280;60850;52.502;13.426;2024-02-15T07:13:09;101397.25;;;10.01;100.00
56928;BME280;60850;52.502;13.426;2024-02-15T07:15:38;101390.16;;;10.01;100.00
56928;BME280;60850;52.502;13.426;2024-02-15T07:18:05;101392.81;;;10.00;100.00
56928;BME280;60850;52.502;13.426;2024-02-15T07:20:33;101391.91;;;10.02;100.00
56928;BME280;60850;52.502;13.426;2024-02-15T07:23:00;101397.19;;;10.04;100.00
56928;BME280;60850;52.502;13.426;2024-02-15T07:25:27;101394.56;;;10.02;100.00
56928;BME280;60850;52.502;13.426;2024-02-15T07:27:54;101398.13;;;10.01;100.00
56928;BME280;60850;52.502;13.426;2024-02-15T07:30:22;101399.00;;;10.03;100.00
56928;BME280;60850;52.502;13.426;2024-02-15T07:32:51;101401.59;;;10.08;100.00
56928;BME280;60850;52.502;13.426;2024-02-15T07:35:18;101397.03;;;10.14;100.00
56928;BME280;60850;52.502;13.426;2024-02-15T07:37:53;101397.06;;;10.13;100.00
56928;BME280;60850;52.502;13.426;2024-02-15T07:40:23;101394.44;;;10.11;100.00
56928;BME280;60850;52.502;13.426;2024-02-15T07:42:56;101397.25;;;10.01;100.00
56928;BME280;60850;52.502;13.426;2024-02-15T07:45:23;101397.00;;;10.17;100.00
56928;BME280;60850;52.502;13.426;2024-02-15T07:47:53;101400.53;;;10.23;100.00
56928;BME280;60850;52.502;13.426;2024-02-15T07:50:19;101394.22;;;10.28;100.00
56928;BME280;60850;52.502;13.426;2024-02-15T07:52:48;101398.69;;;10.26;100.00
56928;BME280;60850;52.502;13.426;2024-02-15T07:55:16;101396.00;;;10.29;100.00
56928;BME280;60850;52.502;13.426;2024-02-15T07:57:44;101389.53;;;10.42;100.00
56928;BME280;60850;52.502;13.426;2024-02-15T08:00:12;101391.22;;;10.51;100.00
56928;BME280;60850;52.502;13.426;2024-02-15T08:02:42;101394.53;;;10.64;100.00
56928;BME280;60850;52.502;13.426;2024-02-15T08:05:12;101395.31;;;10.72;100.00
56928;BME280;60850;52.502;13.426;2024-02-15T08:07:42;101392.75;;;10.66;100.00
56928;BME280;60850;52.502;13.426;2024-02-15T08:10:09;101402.06;;;10.91;100.00
56928;BME280;60850;52.502;13.426;2024-02-15T08:12:40;101391.06;;;11.11;100.00
56928;BME280;60850;52.502;13.426;2024-02-15T08:15:07;101398.00;;;11.20;100.00
56928;BME280;60850;52.502;13.426;2024-02-15T08:17:39;101390.00;;;11.20;100.00
56928;BME280;60850;52.502;13.426;2024-02-15T08:20:07;101389.16;;;11.18;100.00
56928;BME280;60850;52.502;13.426;2024-02-15T08:22:42;101394.31;;;11.27;100.00
56928;BME280;60850;52.502;13.426;2024-02-15T08:25:12;101396.22;;;11.22;100.00
56928;BME280;60850;52.502;13.426;2024-02-15T08:27:42;101395.69;;;11.49;100.00
56928;BME280;60850;52.502;13.426;2024-02-15T08:30:11;101406.59;;;11.37;100.00
56928;BME280;60850;52.502;13.426;2024-02-15T08:32:39;101396.88;;;11.35;100.00
56928;BME280;60850;52.502;13.426;2024-02-15T08:35:08;101404.88;;;11.35;100.00
56928;BME280;60850;52.502;13.426;2024-02-15T08:37:37;101405.16;;;11.18;100.00
56928;BME280;60850;52.502;13.426;2024-02-15T08:40:06;101404.28;;;11.17;100.00
56928;BME280;60850;52.502;13.426;2024-02-15T08:42:37;101398.00;;;11.20;100.00
56928;BME280;60850;52.502;13.426;2024-02-15T08:45:05;101396.03;;;11.31;100.00
56928;BME280;60850;52.502;13.426;2024-02-15T08:47:36;101401.50;;;11.23;100.00
56928;BME280;60850;52.502;13.426;2024-02-15T08:50:04;101403.22;;;11.26;100.00
56928;BME280;60850;52.502;13.426;2024-02-15T08:52:32;101397.91;;;11.26;100.00
56928;BME280;60850;52.502;13.426;2024-02-15T08:55:00;101393.31;;;11.33;100.00
56928;BME280;60850;52.502;13.426;2024-02-15T08:57:27;101397.94;;;11.24;100.00
56928;BME280;60850;52.502;13.426;2024-02-15T08:59:54;101404.28;;;11.17;100.00
56928;BME280;60850;52.502;13.426;2024-02-15T09:02:21;101400.19;;;10.99;100.00
56928;BME280;60850;52.502;13.426;2024-02-15T09:04:48;101413.22;;;11.16;100.00
56928;BME280;60850;52.502;13.426;2024-02-15T09:07:15;101407.06;;;11.11;100.00
56928;BME280;60850;52.502;13.426;2024-02-15T09:09:42;101407.16;;;11.07;100.00
56928;BME280;60850;52.502;13.426;2024-02-15T09:12:11;101399.91;;;11.15;100.00
56928;BME280;60850;52.502;13.426;2024-02-15T09:14:39;101397.91;;;11.26;100.00
56928;BME280;60850;52.502;13.426;2024-02-15T09:17:06;101398.13;;;11.15;100.00
56928;BME280;60850;52.502;13.426;2024-02-15T09:19:33;101399.47;;;11.38;100.00
56928;BME280;60850;52.502;13.426;2024-02-15T09:22:01;101400.88;;;11.55;100.00
56928;BME280;60850;52.502;13.426;2024-02-15T09:24:30;101396.94;;;11.75;100.00
56928;BME280;60850;52.502;13.426;2024-02-15T09:26:59;101397.63;;;11.86;100.00
56928;BME280;60850;52.502;13.426;2024-02-15T09:29:28;101396.63;;;11.90;100.00
56928;BME280;60850;52.502;13.426;2024-02-15T09:31:56;101402.50;;;11.64;100.00
56928;BME280;60850;52.502;13.426;2024-02-15T09:34:23;101400.75;;;11.63;100.00
56928;BME280;60850;52.502;13.426;2024-02-15T09:36:50;101399.16;;;11.53;100.00
56928;BME280;60850;52.502;13.426;2024-02-15T09:39:17;101396.56;;;11.48;100.00
56928;BME280;60850;52.502;13.426;2024-02-15T09:41:44;101403.69;;;11.49;100.00
56928;BME280;60850;52.502;13.426;2024-02-15T09:44:11;101410.94;;;11.41;100.00
56928;BME280;60850;52.502;13.426;2024-02-15T09:46:43;101409.19;;;11.42;100.00
56928;BME280;60850;52.502;13.426;2024-02-15T09:49:11;101421.66;;;11.40;100.00
56928;BME280;60850;52.502;13.426;2024-02-15T09:51:40;101424.38;;;11.38;100.00
56928;BME280;60850;52.502;13.426;2024-02-15T09:54:08;101417.28;;;11.37;100.00
56928;BME280;60850;52.502;13.426;2024-02-15T09:56:38;101418.03;;;11.44;100.00
56928;BME280;60850;52.502;13.426;2024-02-15T09:59:06;101417.03;;;11.49;100.00
56928;BME280;60850;52.502;13.426;2024-02-15T10:01:34;101423.41;;;11.41;100.00
56928;BME280;60850;52.502;13.426;2024-02-15T10:04:05;101427.78;;;11.46;100.00
56928;BME280;60850;52.502;13.426;2024-02-15T10:06:33;101426.84;;;11.49;100.00
56928;BME280;60850;52.502;13.426;2024-02-15T10:09:24;101425.75;;;11.59;100.00
56928;BME280;60850;52.502;13.426;2024-02-15T10:11:56;101423.94;;;11.60;100.00
56928;BME280;60850;52.502;13.426;2024-02-15T10:14:24;101423.72;;;11.72;100.00
56928;BME280;60850;52.502;13.426;2024-02-15T10:16:52;101416.78;;;11.62;100.00
56928;BME280;60850;52.502;13.426;2024-02-15T10:19:21;101406.66;;;11.79;100.00
56928;BME280;60850;52.502;13.426;2024-02-15T10:21:51;101411.03;;;11.85;100.00
56928;BME280;60850;52.502;13.426;2024-02-15T10:24:21;101409.06;;;11.93;100.00
56928;BME280;60850;52.502;13.426;2024-02-15T10:26:50;101403.59;;;11.99;100.00
56928;BME280;60850;52.502;13.426;2024-02-15T10:29:19;101406.97;;;12.07;100.00
56928;BME280;60850;52.502;13.426;2024-02-15T10:31:53;101408.06;;;11.97;100.00
56928;BME280;60850;52.502;13.426;2024-02-15T10:34:21;101410.44;;;12.10;100.00
56928;BME280;60850;52.502;13.426;2024-02-15T10:36:50;101404.09;;;12.16;100.00
56928;BME280;60850;52.502;13.426;2024-02-15T10:39:18;101403.22;;;12.16;100.00
56928;BME280;60850;52.502;13.426;2024-02-15T10:41:47;101399.69;;;12.14;100.00
56928;BME280;60850;52.502;13.426;2024-02-15T10:44:19;101409.38;;;12.19;100.00
56928;BME280;60850;52.502;13.426;2024-02-15T10:46:48;101398.47;;;12.28;100.00
56928;BME280;60850;52.502;13.426;2024-02-15T10:49:18;101402.94;;;12.28;100.00
56928;BME280;60850;52.502;13.426;2024-02-15T10:51:50;101404.59;;;12.32;100.00
56928;BME280;60850;52.502;13.426;2024-02-15T10:57:09;101401.16;;;12.28;100.00
56928;BME280;60850;52.502;13.426;2024-02-15T10:59:37;101397.50;;;12.31;100.00
56928;BME280;60850;52.502;13.426;2024-02-15T11:02:23;101405.34;;;12.38;100.00
56928;BME280;60850;52.502;13.426;2024-02-15T11:04:53;101407.22;;;12.35;100.00
56928;BME280;60850;52.502;13.426;2024-02-15T11:07:25;101402.25;;;12.57;100.00
56928;BME280;60850;52.502;13.426;2024-02-15T11:09:53;101401.28;;;12.59;100.00
56928;BME280;60850;52.502;13.426;2024-02-15T11:12:22;101398.31;;;12.72;100.00
56928;BME280;60850;52.502;13.426;2024-02-15T11:14:50;101398.28;;;12.73;100.00
56928;BME280;60850;52.502;13.426;2024-02-15T11:17:47;101392.78;;;12.79;100.00
56928;BME280;60850;52.502;13.426;2024-02-15T11:20:46;101388.06;;;12.89;100.00
56928;BME280;60850;52.502;13.426;2024-02-15T11:23:25;101385.22;;;12.95;100.00
56928;BME280;60850;52.502;13.426;2024-02-15T11:25:56;101392.31;;;12.96;100.00
56928;BME280;60850;52.502;13.426;2024-02-15T11:28:38;101396.09;;;12.89;100.00
56928;BME280;60850;52.502;13.426;2024-02-15T11:31:09;101389.75;;;12.93;100.00
56928;BME280;60850;52.502;13.426;2024-02-15T11:33:38;101382.44;;;13.00;100.00
56928;BME280;60850;52.502;13.426;2024-02-15T11:36:06;101388.41;;;13.09;100.00
56928;BME280;60850;52.502;13.426;2024-02-15T11:38:35;101382.91;;;13.15;100.00
56928;BME280;60850;52.502;13.426;2024-02-15T11:41:04;101380.69;;;12.99;100.00
56928;BME280;60850;52.502;13.426;2024-02-15T11:43:48;101390.56;;;12.95;100.00
56928;BME280;60850;52.502;13.426;2024-02-15T11:46:22;101387.16;;;12.90;100.00
56928;BME280;60850;52.502;13.426;2024-02-15T11:48:52;101384.94;;;12.72;100.00
56928;BME280;60850;52.502;13.426;2024-02-15T11:51:29;101385.91;;;12.68;100.00
56928;BME280;60850;52.502;13.426;2024-02-15T11:54:06;101384.94;;;12.72;100.00
56928;BME280;60850;52.502;13.426;2024-02-15T11:56:53;101386.13;;;12.60;100.00
56928;BME280;60850;52.502;13.426;2024-02-15T11:59:37;101390.00;;;12.48;100.00
56928;BME280;60850;52.502;13.426;2024-02-15T12:02:18;101383.75;;;12.48;100.00
56928;BME280;60850;52.502;13.426;2024-02-15T12:04:59;101386.38;;;12.49;100.00
56928;BME280;60850;52.502;13.426;2024-02-15T12:07:44;101382.09;;;12.42;100.00
56928;BME280;60850;52.502;13.426;2024-02-15T12:10:31;101376.56;;;12.50;100.00
56928;BME280;60850;52.502;13.426;2024-02-15T12:13:17;101373.13;;;12.45;100.00
56928;BME280;60850;52.502;13.426;2024-02-15T12:16:01;101372.16;;;12.47;100.00
56928;BME280;60850;52.502;13.426;2024-02-15T12:18:46;101367.72;;;12.48;100.00
56928;BME280;60850;52.502;13.426;2024-02-15T12:21:21;101372.16;;;12.49;100.00
56928;BME280;60850;52.502;13.426;2024-02-15T12:23:49;101364.94;;;12.51;100.00
56928;BME280;60850;52.502;13.426;2024-02-15T12:26:20;101360.63;;;12.45;100.00
56928;BME280;60850;52.502;13.426;2024-02-15T12:28:52;101361.31;;;12.53;100.00
56928;BME280;60850;52.502;13.426;2024-02-15T12:31:20;101356.69;;;12.61;100.00
56928;BME280;60850;52.502;13.426;2024-02-15T12:33:59;101356.44;;;12.71;100.00
56928;BME280;60850;52.502;13.426;2024-02-15T12:36:27;101360.72;;;12.78;100.00
56928;BME280;60850;52.502;13.426;2024-02-15T12:39:01;101355.41;;;12.75;100.00
56928;BME280;60850;52.502;13.426;2024-02-15T12:41:37;101348.72;;;12.92;100.00
56928;BME280;60850;52.502;13.426;2024-02-15T12:44:05;101349.34;;;13.02;100.00
56928;BME280;60850;52.502;13.426;2024-02-15T12:46:33;101337.22;;;13.23;100.00
56928;BME280;60850;52.502;13.426;2024-02-15T12:49:08;101334.78;;;13.45;100.00
56928;BME280;60850;52.502;13.426;2024-02-15T12:51:39;101333.69;;;13.52;100.00